sensor_id;sensor_type;location;lat;lon;timestamp;pressure;altitude;pressure_sealevel;temperature;humidity
69058;BME280;56128;37.534;-122.308;2023-02-28T00:01:19;101203.22;;;7.28;100.00
69058;BME280;56128;37.534;-122.308;2023-02-28T00:03:46;101208.88;;;7.22;100.00
69058;BME280;56128;37.534;-122.308;2023-02-28T00:06:12;101210.84;;;7.19;100.00
69058;BME280;56128;37.534;-122.308;2023-02-28T00:08:39;101214.63;;;7.14;100.00
69058;BME280;56128;37.534;-122.308;2023-02-28T00:11:09;101220.28;;;7.08;100.00
69058;BME280;56128;37.534;-122.308;2023-02-28T00:13:38;101208.16;;;7.03;100.00
69058;BME280;56128;37.534;-122.308;2023-02-28T00:16:10;101209.28;;;6.98;100.00
69058;BME280;56128;37.534;-122.308;2023-02-28T00:18:37;101208.50;;;6.96;100.00
69058;BME280;56128;37.534;-122.308;2023-02-28T00:21:04;101209.72;;;7.07;100.00
69058;BME280;56128;37.534;-122.308;2023-02-28T00:23:30;101200.03;;;7.06;100.00
69058;BME280;56128;37.534;-122.308;2023-02-28T00:25:56;101201.03;;;7.03;100.00
69058;BME280;56128;37.534;-122.308;2023-02-28T00:28:23;101218.13;;;6.99;100.00
69058;BME280;56128;37.534;-122.308;2023-02-28T00:30:49;101215.25;;;6.86;100.00
69058;BME280;56128;37.534;-122.308;2023-02-28T00:33:16;101214.19;;;6.73;100.00
69058;BME280;56128;37.534;-122.308;2023-02-28T00:35:43;101219.66;;;6.70;100.00
69058;BME280;56128;37.534;-122.308;2023-02-28T00:38:14;101215.00;;;6.57;100.00
69058;BME280;56128;37.534;-122.308;2023-02-28T00:40:40;101242.06;;;6.48;100.00
69058;BME280;56128;37.534;-122.308;2023-02-28T00:43:07;101239.84;;;6.39;100.00
69058;BME280;56128;37.534;-122.308;2023-02-28T00:45:33;101244.41;;;6.37;100.00
69058;BME280;56128;37.534;-122.308;2023-02-28T00:47:59;101245.75;;;6.28;100.00
69058;BME280;56128;37.534;-122.308;2023-02-28T00:50:25;101238.16;;;6.20;100.00
69058;BME280;56128;37.534;-122.308;2023-02-28T00:52:52;101247.19;;;6.16;100.00
69058;BME280;56128;37.534;-122.308;2023-02-28T00:55:18;101249.84;;;6.16;100.00
69058;BME280;56128;37.534;-122.308;2023-02-28T00:57:44;101255.25;;;6.14;100.00
69058;BME280;56128;37.534;-122.308;2023-02-28T01:00:11;101262.28;;;6.15;100.00
69058;BME280;56128;37.534;-122.308;2023-02-28T01:02:39;101250.72;;;6.16;100.00
69058;BME280;56128;37.534;-122.308;2023-02-28T01:05:05;101256.75;;;6.20;100.00
69058;BME280;56128;37.534;-122.308;2023-02-28T01:07:31;101256.13;;;6.15;100.00
69058;BME280;56128;37.534;-122.308;2023-02-28T01:09:58;101268.53;;;6.14;100.00
69058;BME280;56128;37.534;-122.308;2023-02-28T01:12:24;101265.03;;;6.14;100.00
69058;BME280;56128;37.534;-122.308;2023-02-28T01:14:50;101257.81;;;6.16;100.00
69058;BME280;56128;37.534;-122.308;2023-02-28T01:17:24;101263.44;;;6.10;100.00
69058;BME280;56128;37.534;-122.308;2023-02-28T01:19:54;101272.22;;;6.12;100.00
69058;BME280;56128;37.534;-122.308;2023-02-28T01:22:21;101269.84;;;6.06;100.00
69058;BME280;56128;37.534;-122.308;2023-02-28T01:24:47;101261.16;;;6.02;100.00
69058;BME280;56128;37.534;-122.308;2023-02-28T01:27:14;101265.91;;;5.95;100.00
69058;BME280;56128;37.534;-122.308;2023-02-28T01:29:40;101268.06;;;5.87;100.00
69058;BME280;56128;37.534;-122.308;2023-02-28T01:32:06;101270.97;;;5.82;100.00
69058;BME280;56128;37.534;-122.308;2023-02-28T01:34:52;101270.16;;;5.80;100.00
69058;BME280;56128;37.534;-122.308;2023-02-28T01:37:19;101274.13;;;5.72;100.00
69058;BME280;56128;37.534;-122.308;2023-02-28T01:39:45;101274.41;;;5.65;100.00
69058;BME280;56128;37.534;-122.308;2023-02-28T01:42:11;101265.97;;;5.57;100.00
69058;BME280;56128;37.534;-122.308;2023-02-28T01:47:34;101273.41;;;5.49;100.00
69058;BME280;56128;37.534;-122.308;2023-02-28T01:50:05;101275.53;;;5.41;100.00
69058;BME280;56128;37.534;-122.308;2023-02-28T01:52:33;101274.13;;;5.33;100.00
69058;BME280;56128;37.534;-122.308;2023-02-28T01:55:02;101270.97;;;5.25;100.00
69058;BME280;56128;37.534;-122.308;2023-02-28T01:57:36;101280.66;;;5.26;100.00
69058;BME280;56128;37.534;-122.308;2023-02-28T02:00:08;101288.41;;;5.31;100.00
69058;BME280;56128;37.534;-122.308;2023-02-28T02:02:36;101271.47;;;5.33;100.00
69058;BME280;56128;37.534;-122.308;2023-02-28T02:05:38;101286.44;;;5.34;100.00
69058;BME280;56128;37.534;-122.308;2023-02-28T02:08:03;101286.59;;;5.31;100.00
69058;BME280;56128;37.534;-122.308;2023-02-28T02:10:33;101296.06;;;5.37;100.00
69058;BME280;56128;37.534;-122.308;2023-02-28T02:26:43;101320.69;;;5.01;100.00
69058;BME280;56128;37.534;-122.308;2023-02-28T02:29:19;101322.59;;;4.97;100.00
69058;BME280;56128;37.534;-122.308;2023-02-28T02:34:52;101323.53;;;4.76;100.00
69058;BME280;56128;37.534;-122.308;2023-02-28T02:37:40;101319.41;;;4.68;100.00
69058;BME280;56128;37.534;-122.308;2023-02-28T02:40:20;101318.75;;;4.63;100.00
69058;BME280;56128;37.534;-122.308;2023-02-28T02:43:08;101322.50;;;4.58;100.00
69058;BME280;56128;37.534;-122.308;2023-02-28T02:45:42;101321.25;;;4.66;100.00
69058;BME280;56128;37.534;-122.308;2023-02-28T02:48:14;101329.41;;;4.62;100.00
69058;BME280;56128;37.534;-122.308;2023-02-28T02:50:49;101327.34;;;4.48;100.00
69058;BME280;56128;37.534;-122.308;2023-02-28T02:53:18;101341.41;;;4.50;100.00
69058;BME280;56128;37.534;-122.308;2023-02-28T02:55:48;101348.84;;;4.40;100.00
69058;BME280;56128;37.534;-122.308;2023-02-28T02:58:24;101349.97;;;4.34;100.00
69058;BME280;56128;37.534;-122.308;2023-02-28T03:00:59;101350.97;;;4.32;100.00
69058;BME280;56128;37.534;-122.308;2023-02-28T03:03:28;101347.81;;;4.22;100.00
69058;BME280;56128;37.534;-122.308;2023-02-28T03:05:58;101350.72;;;4.16;100.00
69058;BME280;56128;37.534;-122.308;2023-02-28T03:08:26;101354.66;;;4.05;100.00
69058;BME280;56128;37.534;-122.308;2023-02-28T03:10:58;101360.06;;;4.02;100.00
69058;BME280;56128;37.534;-122.308;2023-02-28T03:16:33;101361.53;;;3.87;100.00
69058;BME280;56128;37.534;-122.308;2023-02-28T03:19:26;101366.19;;;3.81;100.00
69058;BME280;56128;37.534;-122.308;2023-02-28T03:25:09;101379.72;;;3.73;100.00
69058;BME280;56128;37.534;-122.308;2023-02-28T03:30:17;101386.22;;;3.64;100.00
69058;BME280;56128;37.534;-122.308;2023-02-28T03:32:59;101376.78;;;3.57;100.00
69058;BME280;56128;37.534;-122.308;2023-02-28T03:35:40;101387.16;;;3.63;100.00
69058;BME280;56128;37.534;-122.308;2023-02-28T03:38:34;101382.84;;;3.61;100.00
69058;BME280;56128;37.534;-122.308;2023-02-28T03:41:06;101377.88;;;3.51;100.00
69058;BME280;56128;37.534;-122.308;2023-02-28T03:43:38;101389.44;;;3.49;100.00
69058;BME280;56128;37.534;-122.308;2023-02-28T03:46:10;101378.28;;;3.40;100.00
69058;BME280;56128;37.534;-122.308;2023-02-28T03:51:09;101386.22;;;3.40;100.00
69058;BME280;56128;37.534;-122.308;2023-02-28T03:53:44;101405.28;;;3.49;100.00
69058;BME280;56128;37.534;-122.308;2023-02-28T03:56:22;101403.31;;;3.55;100.00
69058;BME280;56128;37.534;-122.308;2023-02-28T04:01:49;101384.97;;;3.74;100.00
69058;BME280;56128;37.534;-122.308;2023-02-28T04:04:18;101400.56;;;3.82;100.00
69058;BME280;56128;37.534;-122.308;2023-02-28T04:06:44;101403.81;;;3.89;100.00
69058;BME280;56128;37.534;-122.308;2023-02-28T04:09:13;101403.88;;;3.87;100.00
69058;BME280;56128;37.534;-122.308;2023-02-28T04:11:52;101405.69;;;3.87;100.00
69058;BME280;56128;37.534;-122.308;2023-02-28T04:14:19;101412.56;;;3.91;100.00
69058;BME280;56128;37.534;-122.308;2023-02-28T04:16:45;101411.75;;;3.89;100.00
69058;BME280;56128;37.534;-122.308;2023-02-28T04:19:12;101398.06;;;3.78;100.00
69058;BME280;56128;37.534;-122.308;2023-02-28T04:21:44;101419.00;;;3.84;100.00
69058;BME280;56128;37.534;-122.308;2023-02-28T04:24:13;101405.84;;;3.82;100.00
69058;BME280;56128;37.534;-122.308;2023-02-28T04:26:45;101412.88;;;3.83;100.00
69058;BME280;56128;37.534;-122.308;2023-02-28T04:29:13;101415.53;;;3.83;100.00
69058;BME280;56128;37.534;-122.308;2023-02-28T04:31:40;101419.00;;;3.84;100.00
69058;BME280;56128;37.534;-122.308;2023-02-28T04:34:06;101403.88;;;3.87;100.00
69058;BME280;56128;37.534;-122.308;2023-02-28T04:36:33;101411.81;;;3.87;100.00
69058;BME280;56128;37.534;-122.308;2023-02-28T04:38:59;101412.72;;;3.88;100.00
69058;BME280;56128;37.534;-122.308;2023-02-28T04:41:25;101407.22;;;3.93;100.00
69058;BME280;56128;37.534;-122.308;2023-02-28T04:43:52;101403.72;;;3.92;100.00
69058;BME280;56128;37.534;-122.308;2023-02-28T04:46:19;101404.47;;;3.96;100.00
69058;BME280;56128;37.534;-122.308;2023-02-28T04:48:45;101411.53;;;3.95;100.00
69058;BME280;56128;37.534;-122.308;2023-02-28T04:51:14;101402.56;;;3.99;100.00
69058;BME280;56128;37.534;-122.308;2023-02-28T04:53:41;101403.41;;;4.00;100.00
69058;BME280;56128;37.534;-122.308;2023-02-28T04:56:11;101405.22;;;3.99;100.00
69058;BME280;56128;37.534;-122.308;2023-02-28T04:58:38;101414.19;;;3.95;100.00
69058;BME280;56128;37.534;-122.308;2023-02-28T05:01:27;101419.25;;;4.01;100.00
69058;BME280;56128;37.534;-122.308;2023-02-28T05:03:55;101416.66;;;4.00;100.00
69058;BME280;56128;37.534;-122.308;2023-02-28T05:06:23;101423.69;;;4.01;100.00
69058;BME280;56128;37.534;-122.308;2023-02-28T05:08:50;101424.53;;;4.01;100.00
69058;BME280;56128;37.534;-122.308;2023-02-28T05:11:22;101427.31;;;3.98;100.00
69058;BME280;56128;37.534;-122.308;2023-02-28T05:13:50;101427.31;;;3.98;100.00
69058;BME280;56128;37.534;-122.308;2023-02-28T05:16:16;101429.28;;;3.93;100.00
69058;BME280;56128;37.534;-122.308;2023-02-28T05:18:43;101423.97;;;3.93;100.00
69058;BME280;56128;37.534;-122.308;2023-02-28T05:23:50;101425.97;;;3.86;100.00
69058;BME280;56128;37.534;-122.308;2023-02-28T05:26:16;101428.81;;;3.82;100.00
69058;BME280;56128;37.534;-122.308;2023-02-28T05:28:42;101425.47;;;3.77;100.00
69058;BME280;56128;37.534;-122.308;2023-02-28T05:31:10;101430.66;;;3.80;100.00
69058;BME280;56128;37.534;-122.308;2023-02-28T05:33:37;101423.53;;;3.82;100.00
69058;BME280;56128;37.534;-122.308;2023-02-28T05:36:04;101426.16;;;3.82;100.00
69058;BME280;56128;37.534;-122.308;2023-02-28T05:38:30;101425.94;;;3.88;100.00
69058;BME280;56128;37.534;-122.308;2023-02-28T05:40:57;101424.06;;;3.92;100.00
69058;BME280;56128;37.534;-122.308;2023-02-28T05:43:23;101429.97;;;3.98;100.00
69058;BME280;56128;37.534;-122.308;2023-02-28T05:45:49;101426.28;;;4.02;100.00
69058;BME280;56128;37.534;-122.308;2023-02-28T05:48:16;101431.91;;;4.17;100.00
69058;BME280;56128;37.534;-122.308;2023-02-28T05:50:43;101437.22;;;4.17;100.00
69058;BME280;56128;37.534;-122.308;2023-02-28T05:53:14;101454.56;;;4.24;100.00
69058;BME280;56128;37.534;-122.308;2023-02-28T05:55:41;101472.34;;;4.44;100.00
69058;BME280;56128;37.534;-122.308;2023-02-28T05:58:10;101495.09;;;4.50;100.00
69058;BME280;56128;37.534;-122.308;2023-02-28T06:00:36;101484.38;;;4.53;100.00
69058;BME280;56128;37.534;-122.308;2023-02-28T06:03:02;101481.72;;;4.53;100.00
69058;BME280;56128;37.534;-122.308;2023-02-28T06:05:32;101469.28;;;4.55;100.00
69058;BME280;56128;37.534;-122.308;2023-02-28T06:08:01;101468.66;;;4.48;100.00
69058;BME280;56128;37.534;-122.308;2023-02-28T06:10:27;101483.16;;;4.39;100.00
69058;BME280;56128;37.534;-122.308;2023-02-28T06:12:53;101493.81;;;4.38;100.00
69058;BME280;56128;37.534;-122.308;2023-02-28T06:15:19;101495.72;;;4.34;100.00
69058;BME280;56128;37.534;-122.308;2023-02-28T06:17:48;101496.00;;;4.27;100.00
69058;BME280;56128;37.534;-122.308;2023-02-28T06:20:18;101500.59;;;4.21;100.00
69058;BME280;56128;37.534;-122.308;2023-02-28T06:22:44;101507.16;;;4.11;100.00
69058;BME280;56128;37.534;-122.308;2023-02-28T06:25:10;101519.84;;;4.03;100.00
69058;BME280;56128;37.534;-122.308;2023-02-28T06:27:37;101518.38;;;3.94;100.00
69058;BME280;56128;37.534;-122.308;2023-02-28T06:30:03;101517.03;;;3.82;100.00
69058;BME280;56128;37.534;-122.308;2023-02-28T06:32:30;101524.22;;;3.79;100.00
69058;BME280;56128;37.534;-122.308;2023-02-28T06:34:59;101521.09;;;3.67;100.00
69058;BME280;56128;37.534;-122.308;2023-02-28T06:37:25;101515.22;;;3.59;100.00
69058;BME280;56128;37.534;-122.308;2023-02-28T06:39:52;101523.44;;;3.50;100.00
69058;BME280;56128;37.534;-122.308;2023-02-28T06:42:21;101508.00;;;3.37;100.00
69058;BME280;56128;37.534;-122.308;2023-02-28T06:44:53;101511.78;;;3.30;100.00
69058;BME280;56128;37.534;-122.308;2023-02-28T06:47:39;101524.19;;;3.28;100.00
69058;BME280;56128;37.534;-122.308;2023-02-28T06:50:10;101516.66;;;3.16;100.00
69058;BME280;56128;37.534;-122.308;2023-02-28T06:52:37;101521.13;;;3.14;100.00
69058;BME280;56128;37.534;-122.308;2023-02-28T06:55:07;101521.81;;;3.20;100.00
69058;BME280;56128;37.534;-122.308;2023-02-28T06:57:37;101511.13;;;3.23;100.00
69058;BME280;56128;37.534;-122.308;2023-02-28T07:00:08;101518.06;;;3.28;100.00
69058;BME280;56128;37.534;-122.308;2023-02-28T07:02:36;101513.56;;;3.30;100.00
69058;BME280;56128;37.534;-122.308;2023-02-28T07:05:04;101511.66;;;3.33;100.00
69058;BME280;56128;37.534;-122.308;2023-02-28T07:07:34;101504.56;;;3.35;100.00
69058;BME280;56128;37.534;-122.308;2023-02-28T07:10:03;101502.63;;;3.40;100.00
69058;BME280;56128;37.534;-122.308;2023-02-28T07:12:29;101513.09;;;3.44;100.00
69058;BME280;56128;37.534;-122.308;2023-02-28T07:14:55;101510.22;;;3.50;100.00
69058;BME280;56128;37.534;-122.308;2023-02-28T07:17:22;101510.34;;;3.47;100.00
69058;BME280;56128;37.534;-122.308;2023-02-28T07:19:51;101512.72;;;3.54;100.00
69058;BME280;56128;37.534;-122.308;2023-02-28T07:22:22;101517.16;;;3.54;100.00
69058;BME280;56128;37.534;-122.308;2023-02-28T07:24:48;101514.59;;;3.51;100.00
69058;BME280;56128;37.534;-122.308;2023-02-28T07:27:20;101515.44;;;3.53;100.00
69058;BME280;56128;37.534;-122.308;2023-02-28T07:29:51;101515.56;;;3.48;100.00
69058;BME280;56128;37.534;-122.308;2023-02-28T07:32:18;101515.69;;;3.45;100.00
69058;BME280;56128;37.534;-122.308;2023-02-28T07:34:45;101515.94;;;3.37;100.00
69058;BME280;56128;37.534;-122.308;2023-02-28T07:37:11;101515.41;;;3.28;100.00
69058;BME280;56128;37.534;-122.308;2023-02-28T07:39:37;101519.81;;;3.27;100.00
69058;BME280;56128;37.534;-122.308;2023-02-28T07:42:06;101516.53;;;3.20;100.00
69058;BME280;56128;37.534;-122.308;2023-02-28T07:44:36;101506.19;;;3.13;100.00
69058;BME280;56128;37.534;-122.308;2023-02-28T07:47:09;101519.56;;;3.08;100.00
69058;BME280;56128;37.534;-122.308;2023-02-28T07:49:36;101510.03;;;3.02;100.00
69058;BME280;56128;37.534;-122.308;2023-02-28T07:52:06;101511.13;;;2.97;100.00
69058;BME280;56128;37.534;-122.308;2023-02-28T07:54:33;101513.97;;;2.90;100.00
69058;BME280;56128;37.534;-122.308;2023-02-28T07:56:59;101504.50;;;2.83;100.00
69058;BME280;56128;37.534;-122.308;2023-02-28T07:59:26;101507.31;;;2.79;100.00
69058;BME280;56128;37.534;-122.308;2023-02-28T08:01:52;101500.41;;;2.73;100.00
69058;BME280;56128;37.534;-122.308;2023-02-28T08:04:18;101508.28;;;2.74;100.00
69058;BME280;56128;37.534;-122.308;2023-02-28T08:06:45;101511.19;;;2.67;100.00
69058;BME280;56128;37.534;-122.308;2023-02-28T08:09:11;101513.16;;;2.60;100.00
69058;BME280;56128;37.534;-122.308;2023-02-28T08:11:38;101503.56;;;2.56;100.00
69058;BME280;56128;37.534;-122.308;2023-02-28T08:14:04;101500.94;;;2.56;100.00
69058;BME280;56128;37.534;-122.308;2023-02-28T08:16:30;101496.59;;;2.55;100.00
69058;BME280;56128;37.534;-122.308;2023-02-28T08:18:56;101501.75;;;2.58;100.00
69058;BME280;56128;37.534;-122.308;2023-02-28T08:21:23;101486.88;;;2.55;100.00
69058;BME280;56128;37.534;-122.308;2023-02-28T08:23:50;101500.66;;;2.65;100.00
69058;BME280;56128;37.534;-122.308;2023-02-28T08:26:17;101478.13;;;2.53;100.00
69058;BME280;56128;37.534;-122.308;2023-02-28T08:28:44;101491.09;;;2.61;100.00
69058;BME280;56128;37.534;-122.308;2023-02-28T08:31:12;101494.34;;;2.69;100.00
69058;BME280;56128;37.534;-122.308;2023-02-28T08:33:39;101490.88;;;2.69;100.00
69058;BME280;56128;37.534;-122.308;2023-02-28T08:36:07;101491.81;;;2.66;100.00
69058;BME280;56128;37.534;-122.308;2023-02-28T08:38:35;101481.25;;;2.66;100.00
69058;BME280;56128;37.534;-122.308;2023-02-28T08:41:07;101493.53;;;2.67;100.00
69058;BME280;56128;37.534;-122.308;2023-02-28T08:43:34;101483.06;;;2.64;100.00
69058;BME280;56128;37.534;-122.308;2023-02-28T08:46:01;101475.91;;;2.68;100.00
69058;BME280;56128;37.534;-122.308;2023-02-28T08:48:28;101483.59;;;2.75;100.00
69058;BME280;56128;37.534;-122.308;2023-02-28T08:53:22;101479.66;;;2.89;100.00
69058;BME280;56128;37.534;-122.308;2023-02-28T08:56:05;101476.84;;;2.93;100.00
69058;BME280;56128;37.534;-122.308;2023-02-28T08:58:32;101477.78;;;2.92;100.00
69058;BME280;56128;37.534;-122.308;2023-02-28T09:01:00;101466.44;;;2.89;100.00
69058;BME280;56128;37.534;-122.308;2023-02-28T09:03:26;101482.22;;;2.90;100.00
69058;BME280;56128;37.534;-122.308;2023-02-28T09:05:57;101489.25;;;2.91;100.00
69058;BME280;56128;37.534;-122.308;2023-02-28T09:08:26;101492.09;;;2.85;100.00
69058;BME280;56128;37.534;-122.308;2023-02-28T09:10:53;101498.28;;;2.84;100.00
69058;BME280;56128;37.534;-122.308;2023-02-28T09:13:20;101488.81;;;2.79;100.00
69058;BME280;56128;37.534;-122.308;2023-02-28T09:15:46;101493.16;;;2.80;100.00
69058;BME280;56128;37.534;-122.308;2023-02-28T09:18:12;101496.66;;;2.80;100.00
69058;BME280;56128;37.534;-122.308;2023-02-28T09:20:40;101492.16;;;2.84;100.00
69058;BME280;56128;37.534;-122.308;2023-02-28T09:23:08;101507.72;;;2.93;100.00
69058;BME280;56128;37.534;-122.308;2023-02-28T09:25:35;101510.03;;;3.02;100.00
69058;BME280;56128;37.534;-122.308;2023-02-28T09:28:01;101512.47;;;3.08;100.00
69058;BME280;56128;37.534;-122.308;2023-02-28T09:30:28;101502.84;;;3.07;100.00
69058;BME280;56128;37.534;-122.308;2023-02-28T09:32:55;101517.44;;;3.19;100.00
69058;BME280;56128;37.534;-122.308;2023-02-28T09:35:22;101509.34;;;3.24;100.00
69058;BME280;56128;37.534;-122.308;2023-02-28T09:37:51;101495.16;;;3.27;100.00
69058;BME280;56128;37.534;-122.308;2023-02-28T09:40:19;101479.34;;;3.25;100.00
69058;BME280;56128;37.534;-122.308;2023-02-28T09:42:48;101492.34;;;3.31;100.00
69058;BME280;56128;37.534;-122.308;2023-02-28T09:45:36;101495.22;;;3.25;100.00
69058;BME280;56128;37.534;-122.308;2023-02-28T09:48:10;101491.94;;;3.17;100.00
69058;BME280;56128;37.534;-122.308;2023-02-28T09:50:43;101486.03;;;3.08;100.00
69058;BME280;56128;37.534;-122.308;2023-02-28T09:53:32;101488.88;;;3.02;100.00
69058;BME280;56128;37.534;-122.308;2023-02-28T09:56:20;101478.47;;;2.98;100.00
69058;BME280;56128;37.534;-122.308;2023-02-28T09:59:01;101480.41;;;2.92;100.00
69058;BME280;56128;37.534;-122.308;2023-02-28T10:01:37;101476.19;;;2.87;100.00
69058;BME280;56128;37.534;-122.308;2023-02-28T10:06:51;101469.75;;;2.67;100.00
69058;BME280;56128;37.534;-122.308;2023-02-28T10:09:25;101462.94;;;2.60;100.00
69058;BME280;56128;37.534;-122.308;2023-02-28T10:11:55;101465.84;;;2.52;100.00
69058;BME280;56128;37.534;-122.308;2023-02-28T10:14:26;101447.75;;;2.38;100.00
69058;BME280;56128;37.534;-122.308;2023-02-28T10:16:58;101468.88;;;2.38;100.00
69058;BME280;56128;37.534;-122.308;2023-02-28T10:22:22;101448.34;;;2.20;100.00
69058;BME280;56128;37.534;-122.308;2023-02-28T10:24:53;101464.19;;;2.20;100.00
69058;BME280;56128;37.534;-122.308;2023-02-28T10:27:25;101448.53;;;2.12;100.00
69058;BME280;56128;37.534;-122.308;2023-02-28T10:29:57;101448.59;;;2.10;100.00
69058;BME280;56128;37.534;-122.308;2023-02-28T10:32:32;101451.41;;;2.06;100.00
69058;BME280;56128;37.534;-122.308;2023-02-28T10:35:15;101444.47;;;2.02;100.00
69058;BME280;56128;37.534;-122.308;2023-02-28T10:37:44;101434.06;;;1.97;100.00
69058;BME280;56128;37.534;-122.308;2023-02-28T10:40:29;101429.75;;;1.93;100.00
69058;BME280;56128;37.534;-122.308;2023-02-28T10:42:57;101427.16;;;1.91;100.00
69058;BME280;56128;37.534;-122.308;2023-02-28T10:45:26;101419.38;;;1.87;100.00
69058;BME280;56128;37.534;-122.308;2023-02-28T10:47:59;101428.13;;;1.89;100.00
69058;BME280;56128;37.534;-122.308;2023-02-28T10:52:53;101426.34;;;1.89;100.00
69058;BME280;56128;37.534;-122.308;2023-02-28T10:55:25;101420.25;;;1.87;100.00
69058;BME280;56128;37.534;-122.308;2023-02-28T10:57:52;101428.22;;;1.86;100.00
69058;BME280;56128;37.534;-122.308;2023-02-28T11:00:21;101415.22;;;1.78;100.00
69058;BME280;56128;37.534;-122.308;2023-02-28T11:02:48;101422.06;;;1.85;100.00
69058;BME280;56128;37.534;-122.308;2023-02-28T11:05:32;101422.13;;;1.84;100.00
69058;BME280;56128;37.534;-122.308;2023-02-28T11:08:06;101419.56;;;1.81;100.00
69058;BME280;56128;37.534;-122.308;2023-02-28T11:10:37;101411.75;;;1.77;100.00
69058;BME280;56128;37.534;-122.308;2023-02-28T11:13:03;101415.09;;;1.83;100.00
69058;BME280;56128;37.534;-122.308;2023-02-28T11:15:34;101403.72;;;1.81;100.00
69058;BME280;56128;37.534;-122.308;2023-02-28T11:18:01;101413.25;;;1.86;100.00
69058;BME280;56128;37.534;-122.308;2023-02-28T11:20:32;101406.25;;;1.85;100.00
69058;BME280;56128;37.534;-122.308;2023-02-28T11:23:00;101405.28;;;1.88;100.00
69058;BME280;56128;37.534;-122.308;2023-02-28T11:28:03;101408.75;;;1.90;100.00
69058;BME280;56128;37.534;-122.308;2023-02-28T11:30:41;101412.06;;;1.97;100.00
69058;BME280;56128;37.534;-122.308;2023-02-28T11:33:40;101414.66;;;1.98;100.00
69058;BME280;56128;37.534;-122.308;2023-02-28T11:36:31;101412.94;;;1.97;100.00
69058;BME280;56128;37.534;-122.308;2023-02-28T11:39:10;101399.00;;;1.92;100.00
69058;BME280;56128;37.534;-122.308;2023-02-28T11:41:55;101401.59;;;1.93;100.00
69058;BME280;56128;37.534;-122.308;2023-02-28T12:04:33;101382.66;;;2.09;100.00
69058;BME280;56128;37.534;-122.308;2023-02-28T12:09:44;101387.63;;;2.18;100.00
69058;BME280;56128;37.534;-122.308;2023-02-28T12:12:32;101375.38;;;2.17;100.00
69058;BME280;56128;37.534;-122.308;2023-02-28T12:20:34;101374.09;;;2.29;100.00
69058;BME280;56128;37.534;-122.308;2023-02-28T12:28:45;101361.53;;;2.37;100.00
69058;BME280;56128;37.534;-122.308;2023-02-28T12:31:21;101357.94;;;2.40;100.00
69058;BME280;56128;37.534;-122.308;2023-02-28T12:34:03;101349.03;;;2.42;100.00
69058;BME280;56128;37.534;-122.308;2023-02-28T12:36:30;101352.44;;;2.46;100.00
69058;BME280;56128;37.534;-122.308;2023-02-28T12:39:03;101345.94;;;2.56;100.00
69058;BME280;56128;37.534;-122.308;2023-02-28T12:41:44;101342.81;;;2.70;100.00
69058;BME280;56128;37.534;-122.308;2023-02-28T12:44:21;101341.50;;;2.84;100.00
69058;BME280;56128;37.534;-122.308;2023-02-28T12:46:52;101353.56;;;2.91;100.00
69058;BME280;56128;37.534;-122.308;2023-02-28T12:51:59;101352.44;;;2.98;100.00
69058;BME280;56128;37.534;-122.308;2023-02-28T12:57:07;101358.91;;;3.15;100.00
69058;BME280;56128;37.534;-122.308;2023-02-28T12:59:45;101351.78;;;3.17;100.00
69058;BME280;56128;37.534;-122.308;2023-02-28T13:02:29;101351.56;;;3.23;100.00
69058;BME280;56128;37.534;-122.308;2023-02-28T13:08:23;101349.63;;;3.52;100.00
69058;BME280;56128;37.534;-122.308;2023-02-28T13:10:53;101349.47;;;3.56;100.00
69058;BME280;56128;37.534;-122.308;2023-02-28T13:13:27;101334.59;;;3.54;100.00
69058;BME280;56128;37.534;-122.308;2023-02-28T13:16:15;101330.06;;;3.56;100.00
69058;BME280;56128;37.534;-122.308;2023-02-28T13:18:46;101345.72;;;3.62;100.00
69058;BME280;56128;37.534;-122.308;2023-02-28T13:21:47;101345.63;;;3.65;100.00
69058;BME280;56128;37.534;-122.308;2023-02-28T13:24:46;101328.78;;;3.66;100.00
69058;BME280;56128;37.534;-122.308;2023-02-28T13:29:43;101337.75;;;3.86;100.00
69058;BME280;56128;37.534;-122.308;2023-02-28T13:32:19;101340.03;;;3.95;100.00
69058;BME280;56128;37.534;-122.308;2023-02-28T13:35:12;101332.53;;;4.06;100.00
69058;BME280;56128;37.534;-122.308;2023-02-28T13:37:43;101324.47;;;4.10;100.00
69058;BME280;56128;37.534;-122.308;2023-02-28T13:47:49;101319.59;;;4.21;100.00
69058;BME280;56128;37.534;-122.308;2023-02-28T13:50:34;101325.81;;;4.20;100.00
69058;BME280;56128;37.534;-122.308;2023-02-28T13:55:54;101327.41;;;4.24;100.00
69058;BME280;56128;37.534;-122.308;2023-02-28T14:05:11;101312.25;;;4.28;100.00
69058;BME280;56128;37.534;-122.308;2023-02-28T14:07:42;101303.22;;;4.33;100.00
69058;BME280;56128;37.534;-122.308;2023-02-28T14:10:24;101294.38;;;4.33;100.00
69058;BME280;56128;37.534;-122.308;2023-02-28T14:20:40;101279.03;;;4.41;100.00
69058;BME280;56128;37.534;-122.308;2023-02-28T14:23:29;101290.19;;;4.49;100.00
69058;BME280;56128;37.534;-122.308;2023-02-28T14:26:25;101275.22;;;4.48;100.00
69058;BME280;56128;37.534;-122.308;2023-02-28T14:29:07;101262.81;;;4.49;100.00
69058;BME280;56128;37.534;-122.308;2023-02-28T14:31:43;101263.69;;;4.49;100.00
69058;BME280;56128;37.534;-122.308;2023-02-28T14:37:13;101240.84;;;4.47;100.00
69058;BME280;56128;37.534;-122.308;2023-02-28T14:39:43;101247.72;;;4.51;100.00
69058;BME280;56128;37.534;-122.308;2023-02-28T14:42:34;101247.84;;;4.48;100.00